.
WxDataArchive / Data Records for 2013-05-15
2013-05-14 May 2013 2013-05-16

Data Records for Wednesday, 15 May 2013

Time	Temp	Chill	HIndex	Humid	Dewpt	 Wind 	HiWind	WindDir	Rain 	Barom 
-----	----	-----	------	-----	-----	------	------	-------	-----	----- 
00:00	73.3	73.3	73.3	60	58.6	0	3	270	0.00	29.734 
00:05	73.3	73.3	73.3	60	58.6	0	3	248	0.00	29.734 
00:10	73.3	73.3	73.3	59	58.1	0	1	270	0.00	29.734 
00:15	73.3	73.3	73.3	59	58.1	1	5	270	0.00	29.729 
00:20	73.3	73.3	73.3	59	58.1	0	3	270	0.00	29.729 
00:25	73.3	73.3	73.3	60	58.6	0	3	270	0.00	29.729 
00:30	73.3	73.3	73.3	59	58.1	1	3	270	0.00	29.715 
00:35	73.3	73.3	73.3	59	58.1	1	3	270	0.00	29.715 
00:40	73.3	73.3	73.3	60	58.6	0	2	248	0.00	29.715 
00:45	73.3	73.3	73.3	59	58.1	1	3	248	0.00	29.719 
00:50	73.3	73.3	73.3	59	58.1	1	3	248	0.00	29.719 
00:55	73.5	73.5	73.5	59	58.3	1	4	248	0.00	29.719 
01:00	73.5	73.5	73.5	59	58.3	1	4	248	0.00	29.716 
01:05	73.5	73.5	73.5	59	58.3	1	4	248	0.00	29.716 
01:10	73.5	73.5	73.5	59	58.3	1	4	248	0.00	29.716 
01:15	73.5	73.5	73.5	59	58.3	1	4	270	0.00	29.712 
01:20	73.3	73.3	73.3	59	58.1	1	4	225	0.00	29.712 
01:25	73.2	73.2	73.2	59	58.0	1	6	225	0.00	29.712 
01:30	73.0	73.0	73.0	59	57.8	1	3	248	0.00	29.712 
01:35	73.0	73.0	73.0	60	58.3	1	3	248	0.00	29.712 
01:40	72.8	72.8	72.8	60	58.1	1	5	270	0.00	29.712 
01:45	72.7	72.7	72.7	60	58.0	1	4	248	0.00	29.696 
01:50	72.5	72.5	72.5	60	57.8	1	3	248	0.00	29.696 
01:55	72.3	72.3	72.3	61	58.1	1	4	248	0.00	29.696 
02:00	72.3	72.3	72.3	61	58.1	1	5	248	0.00	29.685 
02:05	72.1	72.1	72.1	61	57.9	1	5	248	0.00	29.685 
02:10	72.1	72.1	72.1	61	57.9	1	4	248	0.00	29.685 
02:15	72.1	72.1	72.1	61	57.9	2	6	248	0.00	29.681 
02:20	72.0	72.0	72.0	62	58.3	1	4	248	0.00	29.681 
02:25	71.8	71.8	71.8	62	58.1	1	3	248	0.00	29.681 
02:30	71.8	71.8	71.8	62	58.1	1	5	270	0.00	29.678 
02:35	71.6	71.6	71.6	62	57.9	1	3	248	0.00	29.678 
02:40	71.6	71.6	71.6	62	57.9	1	4	248	0.00	29.678 
02:45	71.5	71.5	71.5	62	57.8	1	5	248	0.00	29.665 
02:50	71.5	71.5	71.5	62	57.8	2	9	248	0.00	29.665 
02:55	71.5	71.5	71.5	62	57.8	2	6	248	0.00	29.665 
03:00	71.5	71.5	71.5	62	57.8	1	6	225	0.00	29.652 
03:05	71.3	71.3	71.3	62	57.6	2	6	248	0.00	29.652 
03:10	71.3	71.3	71.3	62	57.6	1	3	248	0.00	29.652 
03:15	71.3	71.3	71.3	62	57.6	1	8	270	0.00	29.659 
03:20	71.3	71.3	71.3	62	57.6	1	4	270	0.00	29.659 
03:25	71.3	71.3	71.3	62	57.6	1	5	248	0.00	29.659 
03:30	71.5	71.5	71.5	61	57.3	1	3	248	0.00	29.659 
03:35	71.6	71.6	71.6	60	57.0	1	4	248	0.00	29.659 
03:40	72.0	72.0	72.0	60	57.3	1	3	202	0.00	29.659 
03:45	72.1	72.1	72.1	59	57.0	1	4	270	0.00	29.661 
03:50	72.3	72.3	72.3	58	56.7	1	4	270	0.00	29.661 
03:55	72.5	72.5	72.5	57	56.4	2	5	248	0.00	29.661 
04:00	72.8	72.8	72.8	56	56.2	1	4	248	0.00	29.661 
04:05	72.8	72.8	72.8	55	55.7	1	4	248	0.00	29.661 
04:10	73.0	73.0	73.0	54	55.4	1	4	248	0.00	29.661 
04:15	73.2	73.2	73.2	54	55.5	1	5	248	0.00	29.657 
04:20	73.3	73.3	73.3	53	55.1	2	5	248	0.00	29.657 
04:25	73.9	73.9	73.9	51	54.6	2	5	248	0.00	29.657 
04:30	74.0	74.0	74.0	51	54.7	1	5	248	0.00	29.651 
04:35	74.2	74.2	74.2	50	54.3	2	6	248	0.00	29.651 
04:40	74.4	74.4	74.4	50	54.5	2	5	248	0.00	29.651 
04:45	74.6	74.6	74.6	49	54.2	3	10	270	0.00	29.653 
04:50	74.9	74.9	74.9	49	54.4	2	5	292	0.00	29.653 
04:55	74.9	74.9	74.9	48	53.9	4	9	270	0.00	29.653 
05:00	75.1	75.1	77.7	48	54.1	3	11	248	0.00	29.649 
05:05	74.9	74.9	74.9	48	53.9	3	6	270	0.00	29.649 
05:10	74.7	74.7	74.7	49	54.3	3	10	248	0.00	29.649 
05:15	74.6	74.6	74.6	48	53.6	4	10	248	0.00	29.653 
05:20	74.6	74.6	74.6	49	54.2	3	6	248	0.00	29.653 
05:25	74.4	74.4	74.4	49	54.0	3	6	248	0.00	29.653 
05:30	74.2	74.2	74.2	49	53.8	3	6	248	0.00	29.658 
05:35	74.0	74.0	74.0	49	53.6	3	6	248	0.00	29.658 
05:40	74.0	74.0	74.0	49	53.6	3	7	270	0.00	29.658 
05:45	73.9	73.9	73.9	49	53.5	3	6	270	0.00	29.657 
05:50	73.9	73.9	73.9	49	53.5	3	9	248	0.00	29.657 
05:55	73.7	73.7	73.7	50	53.9	2	6	248	0.00	29.657 
06:00	73.5	73.5	73.5	50	53.7	3	11	248	0.00	29.658 
06:05	73.3	73.3	73.3	50	53.5	2	5	248	0.00	29.658 
06:10	73.2	73.2	73.2	50	53.4	3	7	248	0.00	29.658 
06:15	73.2	73.2	73.2	50	53.4	3	7	248	0.00	29.661 
06:20	73.0	73.0	73.0	50	53.2	2	5	248	0.00	29.661 
06:25	72.8	72.8	72.8	50	53.1	2	5	270	0.00	29.661 
06:30	72.8	72.8	72.8	50	53.1	2	5	248	0.00	29.670 
06:35	72.8	72.8	72.8	50	53.1	3	6	248	0.00	29.670 
06:40	73.0	73.0	73.0	50	53.2	2	5	248	0.00	29.670 
06:45	72.8	72.8	72.8	50	53.1	2	7	248	0.00	29.674 
06:50	72.8	72.8	72.8	50	53.1	2	7	270	0.00	29.674 
06:55	72.8	72.8	72.8	49	52.5	2	7	248	0.00	29.674 
07:00	72.8	72.8	72.8	50	53.1	3	5	248	0.00	29.677 
07:05	72.8	72.8	72.8	50	53.1	3	9	248	0.00	29.677 
07:10	72.8	72.8	72.8	50	53.1	2	4	248	0.00	29.677 
07:15	72.8	72.8	72.8	50	53.1	2	6	248	0.00	29.692 
07:20	72.8	72.8	72.8	50	53.1	2	4	270	0.00	29.692 
07:25	73.0	73.0	73.0	50	53.2	2	5	270	0.00	29.692 
07:30	73.0	73.0	73.0	50	53.2	2	4	270	0.00	29.699 
07:35	73.0	73.0	73.0	50	53.2	2	6	248	0.00	29.699 
07:40	72.8	72.8	72.8	50	53.1	2	5	270	0.00	29.699 
07:45	72.8	72.8	72.8	50	53.1	1	4	248	0.00	29.706 
07:50	72.7	72.7	72.7	50	53.0	3	6	248	0.00	29.706 
07:55	72.7	72.7	72.7	50	53.0	2	6	248	0.00	29.706 
08:00	72.7	72.7	72.7	50	53.0	2	6	270	0.00	29.710 
08:05	72.5	72.5	72.5	50	52.8	2	5	248	0.00	29.710 
08:10	72.5	72.5	72.5	51	53.3	2	6	248	0.00	29.710 
08:15	72.3	72.3	72.3	51	53.1	2	4	248	0.00	29.717 
08:20	72.1	72.1	72.1	51	53.0	2	5	248	0.00	29.717 
08:25	72.1	72.1	72.1	51	53.0	2	6	270	0.00	29.717 
08:30	72.5	72.5	72.5	51	53.3	2	4	270	0.00	29.723 
08:35	72.8	72.8	72.8	51	53.6	2	5	270	0.00	29.723 
08:40	73.2	73.2	73.2	50	53.4	2	5	270	0.00	29.723 
08:45	73.7	73.7	73.7	50	53.9	2	7	270	0.00	29.721 
08:50	73.5	73.5	73.5	50	53.7	2	5	248	0.00	29.721 
08:55	73.3	73.3	73.3	50	53.5	3	6	248	0.00	29.721 
09:00	73.3	73.3	73.3	51	54.1	2	9	270	0.00	29.728 
09:05	73.3	73.3	73.3	51	54.1	2	4	248	0.00	29.728 
09:10	73.3	73.3	73.3	51	54.1	2	4	248	0.00	29.728 
09:15	73.3	73.3	73.3	51	54.1	2	6	248	0.00	29.725 
09:20	73.5	73.5	73.5	51	54.2	2	5	248	0.00	29.725 
09:25	73.7	73.7	73.7	51	54.4	3	6	270	0.00	29.725 
09:30	73.7	73.7	73.7	51	54.4	1	4	270	0.00	29.716 
09:35	73.7	73.7	73.7	51	54.4	2	6	270	0.00	29.716 
09:40	73.7	73.7	73.7	51	54.4	3	7	270	0.00	29.716 
09:45	73.7	73.7	73.7	51	54.4	3	6	270	0.00	29.740 
09:50	73.5	73.5	73.5	52	54.8	2	5	270	0.00	29.740 
09:55	73.2	73.2	73.2	52	54.5	1	4	270	0.00	29.740 
10:00	73.0	73.0	73.0	52	54.3	2	5	270	0.00	29.740 
10:05	73.0	73.0	73.0	54	55.4	1	4	270	0.00	29.740 
10:10	72.8	72.8	72.8	54	55.2	1	3	270	0.00	29.740 
10:15	72.8	72.8	72.8	54	55.2	1	4	270	0.00	29.737 
10:20	73.0	73.0	73.0	53	54.8	2	6	270	0.00	29.737 
10:25	73.0	73.0	73.0	53	54.8	1	4	248	0.00	29.737 
10:30	73.0	73.0	73.0	53	54.8	2	5	270	0.00	29.749 
10:35	72.8	72.8	72.8	54	55.2	1	3	270	0.00	29.749 
10:40	72.7	72.7	72.7	55	55.6	2	4	248	0.00	29.749 
10:45	72.8	72.8	72.8	54	55.2	2	6	270	0.00	29.739 
10:50	73.0	73.0	73.0	54	55.4	2	5	292	0.00	29.739 
10:55	73.0	73.0	73.0	54	55.4	2	5	270	0.00	29.739 
11:00	73.0	73.0	73.0	54	55.4	2	5	292	0.00	29.749 
11:05	73.2	73.2	73.2	54	55.5	2	5	270	0.00	29.749 
11:10	73.7	73.7	73.7	55	56.5	2	4	270	0.00	29.749 
11:15	73.9	73.9	73.9	54	56.2	2	5	270	0.00	29.748 
11:20	73.7	73.7	73.7	53	55.5	2	6	270	0.00	29.748 
11:25	73.7	73.7	73.7	53	55.5	2	5	270	0.00	29.748 
11:30	73.9	73.9	73.9	53	55.7	2	5	270	0.00	29.758 
11:35	74.2	74.2	74.2	52	55.4	3	6	248	0.00	29.758 
11:40	74.7	74.7	74.7	52	55.9	2	5	270	0.00	29.758 
11:45	75.8	75.8	78.0	50	55.8	2	5	248	0.00	29.759 
11:50	76.1	76.1	78.1	49	55.5	3	6	270	0.00	29.759 
11:55	76.3	76.3	78.2	49	55.7	3	6	270	0.00	29.759 
12:00	76.7	76.7	78.4	48	55.5	3	6	270	0.00	29.756 
12:05	77.0	77.0	78.5	48	55.8	3	6	270	0.00	29.756 
12:10	77.4	77.4	78.7	47	55.6	3	9	270	0.00	29.756 
12:15	77.2	77.2	78.6	46	54.8	3	5	270	0.00	29.752 
12:20	77.2	77.2	78.5	45	54.2	3	7	270	0.00	29.752 
12:25	77.2	77.2	78.5	44	53.6	3	9	270	0.00	29.752 
12:30	77.2	77.2	78.5	43	52.9	3	5	270	0.00	29.757 
12:35	77.7	77.7	78.7	43	53.4	3	6	248	0.00	29.757 
12:40	77.9	77.9	78.8	42	52.9	3	5	270	0.00	29.757 
12:45	78.3	78.3	78.9	40	52.0	3	10	270	0.00	29.761 
12:50	78.6	78.6	78.9	38	50.8	4	7	270	0.00	29.761 
12:55	78.6	78.6	78.9	38	50.8	4	7	270	0.00	29.761 
13:00	78.6	78.6	78.7	34	47.9	4	9	248	0.00	29.759 
13:05	79.2	79.2	79.0	34	48.4	3	7	270	0.00	29.759 
13:10	79.8	79.8	79.3	33	48.1	4	7	270	0.00	29.759 
13:15	80.3	80.3	79.5	32	47.7	3	6	270	0.00	29.759 
13:20	80.9	80.9	79.9	32	48.2	3	6	270	0.00	29.759 
13:25	81.2	81.2	80.1	32	48.5	4	9	270	0.00	29.759 
13:30	81.6	81.6	80.3	31	48.0	3	6	270	0.00	29.753 
13:35	81.8	81.8	80.3	30	47.3	4	9	270	0.00	29.753 
13:40	82.0	82.0	80.7	32	49.2	4	9	270	0.00	29.753 
13:45	82.4	82.4	80.8	30	47.8	3	7	270	0.00	29.753 
13:50	82.2	82.2	80.6	30	47.7	3	8	248	0.00	29.753 
13:55	82.2	82.2	80.8	32	49.4	3	5	248	0.00	29.753 
14:00	82.6	82.6	80.9	30	48.0	3	7	270	0.00	29.754 
14:05	82.8	82.8	81.2	32	49.9	3	7	270	0.00	29.754 
14:10	83.2	83.2	81.4	30	48.5	3	6	248	0.00	29.754 
14:15	83.4	83.4	81.4	28	46.8	3	6	270	0.00	29.752 
14:20	83.4	83.4	81.4	29	47.8	3	5	270	0.00	29.752 
14:25	83.6	83.6	81.8	31	49.7	3	6	270	0.00	29.752 
14:30	83.8	83.8	81.9	31	49.9	3	5	270	0.00	29.744 
14:35	83.8	83.8	81.8	30	49.0	3	7	270	0.00	29.744 
14:40	84.0	84.0	81.9	29	48.3	3	5	248	0.00	29.744 
14:45	84.3	84.3	82.1	28	47.6	4	7	270	0.00	29.742 
14:50	84.5	84.5	82.3	29	48.7	3	6	270	0.00	29.742 
14:55	84.7	84.7	82.5	29	48.9	3	7	270	0.00	29.742 
15:00	84.5	84.5	82.2	28	47.8	4	6	270	0.00	29.743 
15:05	84.7	84.7	82.3	27	47.0	3	9	248	0.00	29.743 
15:10	85.1	85.1	82.7	28	48.3	2	5	292	0.00	29.743 
15:15	85.3	85.3	82.9	28	48.5	2	5	270	0.00	29.742 
15:20	85.3	85.3	82.9	28	48.5	2	4	270	0.00	29.742 
15:25	85.5	85.5	83.1	28	48.6	2	5	270	0.00	29.742 
15:30	85.5	85.5	83.1	28	48.6	2	5	270	0.00	29.743 
15:35	85.5	85.5	83.0	27	47.7	3	6	270	0.00	29.743 
15:40	85.5	85.5	83.0	27	47.7	2	4	270	0.00	29.743 
15:45	85.5	85.5	83.0	27	47.7	3	6	270	0.00	29.742 
15:50	85.5	85.5	83.1	28	48.6	3	7	270	0.00	29.742 
15:55	85.3	85.3	82.8	27	47.5	3	5	270	0.00	29.742 
16:00	85.3	85.3	82.9	28	48.5	3	9	270	0.00	29.740 
16:05	85.3	85.3	82.9	28	48.5	2	5	270	0.00	29.740 
16:10	85.3	85.3	82.9	28	48.5	3	7	270	0.00	29.740 
16:15	84.9	84.9	82.7	29	49.1	3	6	270	0.00	29.738 
16:20	85.1	85.1	82.7	28	48.3	3	6	270	0.00	29.738 
16:25	85.1	85.1	82.6	27	47.3	2	6	270	0.00	29.738 
16:30	85.3	85.3	83.0	29	49.4	3	5	270	0.00	29.736 
16:35	85.3	85.3	83.0	29	49.4	3	7	270	0.00	29.736 
16:40	85.3	85.3	82.9	28	48.5	3	6	270	0.00	29.736 
16:45	85.1	85.1	82.8	29	49.2	3	6	270	0.00	29.733 
16:50	85.1	85.1	82.8	29	49.2	3	6	270	0.00	29.733 
16:55	85.3	85.3	83.0	29	49.4	3	4	270	0.00	29.733 
17:00	85.3	85.3	82.8	27	47.5	3	6	270	0.00	29.729 
17:05	85.3	85.3	82.9	28	48.5	2	4	270	0.00	29.729 
17:10	85.3	85.3	82.8	27	47.5	3	5	270	0.00	29.729 
17:15	85.3	85.3	83.0	29	49.4	2	3	270	0.00	29.727 
17:20	85.3	85.3	83.1	30	50.3	2	5	270	0.00	29.727 
17:25	85.1	85.1	82.8	29	49.2	3	5	270	0.00	29.727 
17:30	84.9	84.9	82.5	27	47.2	3	6	270	0.00	29.736 
17:35	84.9	84.9	82.7	29	49.1	2	5	270	0.00	29.736 
17:40	85.1	85.1	82.8	29	49.2	2	4	270	0.00	29.736 
17:45	85.3	85.3	82.9	28	48.5	2	4	248	0.00	29.734 
17:50	84.9	84.9	82.5	27	47.2	3	6	270	0.00	29.734 
17:55	84.7	84.7	82.4	28	48.0	3	5	270	0.00	29.734 
18:00	84.3	84.3	82.1	28	47.6	3	6	270	0.00	29.736 
18:05	84.1	84.1	81.9	28	47.4	3	5	270	0.00	29.736 
18:10	84.0	84.0	81.8	28	47.4	2	5	270	0.00	29.736 
18:15	83.8	83.8	81.7	28	47.2	3	6	270	0.00	29.739 
18:20	83.4	83.4	81.4	29	47.8	2	4	248	0.00	29.739 
18:25	83.4	83.4	81.4	29	47.8	2	5	292	0.00	29.739 
18:30	83.2	83.2	81.3	29	47.6	1	3	248	0.00	29.738 
18:35	83.2	83.2	81.3	29	47.6	0	2	248	0.00	29.738 
18:40	83.2	83.2	81.4	30	48.5	0	2	248	0.00	29.738 
18:45	83.2	83.2	81.3	29	47.6	1	3	248	0.00	29.739 
18:50	82.8	82.8	81.0	29	47.3	1	3	248	0.00	29.739 
18:55	82.6	82.6	81.0	31	48.9	0	2	248	0.00	29.739 
19:00	82.4	82.4	80.8	30	47.8	0	2	248	0.00	29.734 
19:05	82.0	82.0	80.6	31	48.4	0	1	248	0.00	29.734 
19:10	81.6	81.6	80.2	30	47.1	0	1	248	0.00	29.734 
19:15	81.4	81.4	80.3	33	49.5	0	1	248	0.00	29.736 
19:20	81.4	81.4	80.3	33	49.5	0	3	248	0.00	29.736 
19:25	81.4	81.4	80.2	32	48.7	0	1	248	0.00	29.736 
19:30	81.2	81.2	80.1	32	48.5	0	1	248	0.00	29.740 
19:35	81.1	81.1	79.9	31	47.6	0	1	248	0.00	29.740 
19:40	80.7	80.7	79.7	31	47.2	1	6	22	0.00	29.740 
19:45	80.1	80.1	79.5	33	48.4	0	4	338	0.00	29.742 
19:50	79.6	79.6	79.2	33	47.9	0	1	292	0.00	29.742 
19:55	79.0	79.0	78.9	34	48.2	0	1	292	0.00	29.742 
20:00	78.6	78.6	78.7	34	47.9	0	0	---	0.00	29.744 
20:05	78.3	78.3	78.5	34	47.6	0	1	292	0.00	29.744 
20:10	77.9	77.9	78.4	35	48.0	0	0	---	0.00	29.744 
20:15	77.7	77.7	78.3	35	47.8	0	0	---	0.00	29.749 
20:20	77.4	77.4	78.2	36	48.3	0	0	---	0.00	29.749 
20:25	77.0	77.0	78.0	36	48.0	0	0	---	0.00	29.749 
20:30	76.8	76.8	78.0	37	48.5	0	1	292	0.00	29.749 
20:35	76.5	76.5	77.9	37	48.3	0	1	292	0.00	29.749 
20:40	76.3	76.3	77.8	38	48.8	0	0	---	0.00	29.749 
20:45	76.0	76.0	77.7	38	48.5	0	0	---	0.00	29.752 
20:50	75.4	75.4	77.6	39	48.7	0	0	---	0.00	29.752 
20:55	75.1	75.1	77.5	39	48.4	0	0	---	0.00	29.752 
21:00	74.9	74.9	74.9	40	48.9	0	1	292	0.00	29.758 
21:05	74.7	74.7	74.7	40	48.8	0	1	292	0.00	29.758 
21:10	74.6	74.6	74.6	40	48.7	0	1	292	0.00	29.758 
21:15	74.6	74.6	74.6	40	48.7	0	1	292	0.00	29.762 
21:20	74.4	74.4	74.4	40	48.5	0	0	---	0.00	29.762 
21:25	74.2	74.2	74.2	40	48.3	0	0	---	0.00	29.762 
21:30	74.0	74.0	74.0	41	48.8	0	0	---	0.00	29.768 
21:35	73.9	73.9	73.9	41	48.7	0	1	292	0.00	29.768 
21:40	73.5	73.5	73.5	42	49.0	0	0	---	0.00	29.768 
21:45	73.3	73.3	73.3	42	48.8	0	0	---	0.00	29.778 
21:50	73.0	73.0	73.0	42	48.5	0	0	---	0.00	29.778 
21:55	72.7	72.7	72.7	43	48.9	0	0	---	0.00	29.778 
22:00	72.5	72.5	72.5	44	49.3	0	0	---	0.00	29.781 
22:05	72.3	72.3	72.3	43	48.5	0	0	---	0.00	29.781 
22:10	72.1	72.1	72.1	45	49.6	0	0	---	0.00	29.781 
22:15	72.1	72.1	72.1	44	49.0	0	0	---	0.00	29.784 
22:20	72.1	72.1	72.1	44	49.0	0	0	---	0.00	29.784 
22:25	72.1	72.1	72.1	44	49.0	0	0	---	0.00	29.784 
22:30	72.3	72.3	72.3	44	49.2	0	0	---	0.00	29.788 
22:35	72.3	72.3	72.3	43	48.5	0	2	292	0.00	29.788 
22:40	72.5	72.5	72.5	43	48.7	0	1	292	0.00	29.788 
22:45	72.5	72.5	72.5	43	48.7	0	1	292	0.00	29.791 
22:50	72.5	72.5	72.5	43	48.7	0	1	292	0.00	29.791 
22:55	72.3	72.3	72.3	43	48.5	0	1	292	0.00	29.791 
23:00	72.3	72.3	72.3	49	52.1	0	1	292	0.00	29.787 
23:05	71.8	71.8	71.8	51	52.7	0	0	---	0.00	29.787 
23:10	71.3	71.3	71.3	54	53.8	0	0	---	0.00	29.787 
23:15	70.4	70.4	70.4	60	55.8	0	1	292	0.00	29.766 
23:20	69.4	69.4	69.4	63	56.2	0	0	---	0.00	29.766 
23:25	68.6	68.6	68.6	64	55.9	0	0	---	0.00	29.766 
23:30	68.1	68.1	68.1	65	55.9	0	0	---	0.00	29.763 
23:35	67.6	67.6	67.6	66	55.8	0	0	---	0.00	29.763 
23:40	66.9	66.9	66.9	68	56.0	0	0	---	0.00	29.763 
23:45	66.6	66.6	66.6	72	57.3	0	0	---	0.00	29.765 
23:50	66.3	66.3	66.3	74	57.8	0	0	---	0.00	29.765 
23:55	66.0	66.0	66.0	75	57.8	0	0	---	0.00	29.765 

CoCoRaHS
IN-AL-39
A2 Web Hosting
Creative Commons License
GoDaddy
search engine by freefind advanced

loaded 2018-11-19 10:43:12 • last modified 2010-11-18 10:43:29
Privacy PolicyDisclaimer
• wx.awcolley.com is powered by PmWiki v.2002016 •
• all content (unless otherwise noted) © 2018 A W Colley